sensor_id;sensor_type;location;lat;lon;timestamp;pressure;altitude;pressure_sealevel;temperature;humidity
22031;BME280;11179;52.106;21.024;2023-05-24T00:01:03;100019.84;;;16.97;45.54
22031;BME280;11179;52.106;21.024;2023-05-24T00:03:28;100005.38;;;16.86;45.60
22031;BME280;11179;52.106;21.024;2023-05-24T00:05:55;100013.38;;;16.88;45.62
22031;BME280;11179;52.106;21.024;2023-05-24T00:08:21;99998.28;;;16.80;45.51
22031;BME280;11179;52.106;21.024;2023-05-24T00:10:46;99994.81;;;16.74;45.49
22031;BME280;11179;52.106;21.024;2023-05-24T00:13:12;100003.41;;;16.86;45.68
22031;BME280;11179;52.106;21.024;2023-05-24T00:15:39;99997.97;;;16.81;45.71
22031;BME280;11179;52.106;21.024;2023-05-24T00:18:04;99979.69;;;16.67;45.82
22031;BME280;11179;52.106;21.024;2023-05-24T00:20:30;100014.00;;;16.84;45.59
22031;BME280;11179;52.106;21.024;2023-05-24T00:22:56;100000.03;;;16.76;45.57
22031;BME280;11179;52.106;21.024;2023-05-24T00:25:21;99991.81;;;16.71;45.76
22031;BME280;11179;52.106;21.024;2023-05-24T00:27:47;99995.09;;;16.73;45.50
22031;BME280;11179;52.106;21.024;2023-05-24T00:30:12;100010.69;;;16.82;45.46
22031;BME280;11179;52.106;21.024;2023-05-24T00:32:37;99972.94;;;16.59;45.42
22031;BME280;11179;52.106;21.024;2023-05-24T00:35:03;99984.22;;;16.63;45.51
22031;BME280;11179;52.106;21.024;2023-05-24T00:37:28;100003.94;;;16.75;45.62
22031;BME280;11179;52.106;21.024;2023-05-24T00:39:54;99986.28;;;16.71;45.61
22031;BME280;11179;52.106;21.024;2023-05-24T00:42:19;99969.09;;;16.55;45.54
22031;BME280;11179;52.106;21.024;2023-05-24T00:44:44;99967.44;;;16.54;45.55
22031;BME280;11179;52.106;21.024;2023-05-24T00:47:10;99999.72;;;16.77;45.64
22031;BME280;11179;52.106;21.024;2023-05-24T00:49:35;99995.94;;;16.73;45.73
22031;BME280;11179;52.106;21.024;2023-05-24T00:52:01;99997.56;;;16.74;45.54
22031;BME280;11179;52.106;21.024;2023-05-24T00:54:27;99993.16;;;16.73;45.48
22031;BME280;11179;52.106;21.024;2023-05-24T00:56:54;99980.13;;;16.60;45.80
22031;BME280;11179;52.106;21.024;2023-05-24T00:59:22;99976.22;;;16.61;46.51
22031;BME280;11179;52.106;21.024;2023-05-24T01:01:47;100008.53;;;16.79;46.35
22031;BME280;11179;52.106;21.024;2023-05-24T01:04:13;100006.88;;;16.78;46.46
22031;BME280;11179;52.106;21.024;2023-05-24T01:06:55;99998.69;;;16.73;46.70
22031;BME280;11179;52.106;21.024;2023-05-24T01:12:58;100005.38;;;16.72;46.52
22031;BME280;11179;52.106;21.024;2023-05-24T01:16:09;99990.38;;;16.60;46.72
22031;BME280;11179;52.106;21.024;2023-05-24T01:18:40;99977.59;;;16.45;46.64
22031;BME280;11179;52.106;21.024;2023-05-24T01:26:32;100005.72;;;16.52;46.64
22031;BME280;11179;52.106;21.024;2023-05-24T01:29:03;99978.41;;;16.32;46.69
22031;BME280;11179;52.106;21.024;2023-05-24T01:31:28;99982.53;;;16.34;47.10
22031;BME280;11179;52.106;21.024;2023-05-24T01:33:54;100002.84;;;16.43;47.20
22031;BME280;11179;52.106;21.024;2023-05-24T01:36:19;100014.97;;;16.47;47.52
22031;BME280;11179;52.106;21.024;2023-05-24T01:38:45;100006.53;;;16.39;47.47
22031;BME280;11179;52.106;21.024;2023-05-24T01:41:17;100015.38;;;16.41;47.71
22031;BME280;11179;52.106;21.024;2023-05-24T01:43:51;100004.47;;;16.31;47.74
22031;BME280;11179;52.106;21.024;2023-05-24T01:46:24;99980.13;;;16.14;47.72
22031;BME280;11179;52.106;21.024;2023-05-24T01:49:00;100011.44;;;16.28;47.78
22031;BME280;11179;52.106;21.024;2023-05-24T01:51:33;100001.91;;;16.21;47.82
22031;BME280;11179;52.106;21.024;2023-05-24T01:54:03;100000.34;;;16.14;47.84
22031;BME280;11179;52.106;21.024;2023-05-24T01:56:30;99994.69;;;16.06;48.05
22031;BME280;11179;52.106;21.024;2023-05-24T01:58:57;100004.03;;;16.10;48.28
22031;BME280;11179;52.106;21.024;2023-05-24T02:01:23;99993.84;;;16.05;48.30
22031;BME280;11179;52.106;21.024;2023-05-24T02:03:49;99990.56;;;16.03;48.21
22031;BME280;11179;52.106;21.024;2023-05-24T02:06:15;99990.34;;;16.00;48.40
22031;BME280;11179;52.106;21.024;2023-05-24T02:08:40;99995.06;;;15.99;48.47
22031;BME280;11179;52.106;21.024;2023-05-24T02:11:06;100011.53;;;16.09;48.51
22031;BME280;11179;52.106;21.024;2023-05-24T02:13:31;100013.47;;;16.09;48.77
22031;BME280;11179;52.106;21.024;2023-05-24T02:15:56;100002.16;;;16.05;48.68
22031;BME280;11179;52.106;21.024;2023-05-24T02:18:21;100004.72;;;16.02;48.59
22031;BME280;11179;52.106;21.024;2023-05-24T02:20:47;100004.47;;;15.98;48.78
22031;BME280;11179;52.106;21.024;2023-05-24T02:23:12;100000.09;;;15.97;48.59
22031;BME280;11179;52.106;21.024;2023-05-24T02:25:38;100015.72;;;16.07;48.73
22031;BME280;11179;52.106;21.024;2023-05-24T02:28:03;100009.19;;;15.98;48.70
22031;BME280;11179;52.106;21.024;2023-05-24T02:30:29;100019.91;;;16.04;48.69
22031;BME280;11179;52.106;21.024;2023-05-24T02:32:54;99996.06;;;15.90;48.92
22031;BME280;11179;52.106;21.024;2023-05-24T02:35:20;100004.06;;;15.91;49.07
22031;BME280;11179;52.106;21.024;2023-05-24T02:37:45;100003.84;;;15.88;48.97
22031;BME280;11179;52.106;21.024;2023-05-24T02:40:11;100015.66;;;15.93;48.88
22031;BME280;11179;52.106;21.024;2023-05-24T02:42:37;100001.38;;;15.86;48.80
22031;BME280;11179;52.106;21.024;2023-05-24T02:45:02;100004.75;;;15.83;48.85
22031;BME280;11179;52.106;21.024;2023-05-24T02:47:28;100007.00;;;15.81;48.81
22031;BME280;11179;52.106;21.024;2023-05-24T02:49:53;100016.84;;;15.87;48.74
22031;BME280;11179;52.106;21.024;2023-05-24T02:52:20;100019.09;;;15.85;48.75
22031;BME280;11179;52.106;21.024;2023-05-24T02:54:47;100008.50;;;15.73;48.66
22031;BME280;11179;52.106;21.024;2023-05-24T02:57:12;100020.25;;;15.84;48.39
22031;BME280;11179;52.106;21.024;2023-05-24T02:59:37;99998.56;;;15.72;48.52
22031;BME280;11179;52.106;21.024;2023-05-24T03:02:03;100014.63;;;15.89;48.36
22031;BME280;11179;52.106;21.024;2023-05-24T03:04:28;100019.47;;;15.97;48.04
22031;BME280;11179;52.106;21.024;2023-05-24T03:06:54;100015.38;;;15.95;47.95
22031;BME280;11179;52.106;21.024;2023-05-24T03:09:19;100023.56;;;16.00;47.71
22031;BME280;11179;52.106;21.024;2023-05-24T03:11:44;99986.50;;;15.82;47.82
22031;BME280;11179;52.106;21.024;2023-05-24T03:14:10;100012.91;;;15.93;47.72
22031;BME280;11179;52.106;21.024;2023-05-24T03:16:35;100004.13;;;15.86;47.62
22031;BME280;11179;52.106;21.024;2023-05-24T03:19:02;100018.31;;;15.98;47.54
22031;BME280;11179;52.106;21.024;2023-05-24T03:21:27;100013.63;;;15.99;47.49
22031;BME280;11179;52.106;21.024;2023-05-24T03:23:52;100009.53;;;15.96;47.47
22031;BME280;11179;52.106;21.024;2023-05-24T03:26:18;100025.13;;;16.06;47.45
22031;BME280;11179;52.106;21.024;2023-05-24T03:28:44;100005.63;;;15.97;47.43
22031;BME280;11179;52.106;21.024;2023-05-24T03:31:10;100007.19;;;16.03;47.32
22031;BME280;11179;52.106;21.024;2023-05-24T03:33:36;100026.81;;;16.21;47.50
22031;BME280;11179;52.106;21.024;2023-05-24T03:36:02;100026.22;;;16.24;47.16
22031;BME280;11179;52.106;21.024;2023-05-24T03:38:28;100031.75;;;16.24;47.33
22031;BME280;11179;52.106;21.024;2023-05-24T03:40:53;100015.13;;;16.10;47.20
22031;BME280;11179;52.106;21.024;2023-05-24T03:43:19;100008.94;;;16.13;47.12
22031;BME280;11179;52.106;21.024;2023-05-24T03:45:45;100034.66;;;16.32;47.14
22031;BME280;11179;52.106;21.024;2023-05-24T03:48:10;100008.34;;;16.16;47.22
22031;BME280;11179;52.106;21.024;2023-05-24T03:50:36;100020.69;;;16.24;47.12
22031;BME280;11179;52.106;21.024;2023-05-24T03:53:01;100048.63;;;16.41;47.07
22031;BME280;11179;52.106;21.024;2023-05-24T03:55:26;100046.59;;;16.46;46.80
22031;BME280;11179;52.106;21.024;2023-05-24T03:57:52;100016.59;;;16.35;47.45
22031;BME280;11179;52.106;21.024;2023-05-24T04:00:17;100029.66;;;16.48;46.85
22031;BME280;11179;52.106;21.024;2023-05-24T04:02:43;100063.81;;;16.76;46.64
22031;BME280;11179;52.106;21.024;2023-05-24T04:05:09;100036.56;;;16.78;46.44
22031;BME280;11179;52.106;21.024;2023-05-24T04:07:38;100060.81;;;17.00;46.36
22031;BME280;11179;52.106;21.024;2023-05-24T04:10:05;100046.22;;;16.94;46.96
22031;BME280;11179;52.106;21.024;2023-05-24T04:12:31;100044.78;;;16.97;46.81
22031;BME280;11179;52.106;21.024;2023-05-24T04:14:58;100051.38;;;17.01;46.85
22031;BME280;11179;52.106;21.024;2023-05-24T04:17:23;100042.94;;;16.92;46.63
22031;BME280;11179;52.106;21.024;2023-05-24T04:19:50;100059.69;;;17.01;46.54
22031;BME280;11179;52.106;21.024;2023-05-24T04:22:16;100041.09;;;16.88;46.74
22031;BME280;11179;52.106;21.024;2023-05-24T04:24:43;100045.63;;;16.83;46.52
22031;BME280;11179;52.106;21.024;2023-05-24T04:27:08;100052.28;;;16.82;46.51
22031;BME280;11179;52.106;21.024;2023-05-24T04:29:34;100061.44;;;16.83;46.58
22031;BME280;11179;52.106;21.024;2023-05-24T04:32:00;100071.00;;;16.91;46.45
22031;BME280;11179;52.106;21.024;2023-05-24T04:34:25;100051.59;;;16.77;46.45
22031;BME280;11179;52.106;21.024;2023-05-24T04:36:54;100051.47;;;16.82;46.30
22031;BME280;11179;52.106;21.024;2023-05-24T04:39:19;100070.50;;;16.89;46.46
22031;BME280;11179;52.106;21.024;2023-05-24T04:41:44;100081.88;;;17.01;46.32
22031;BME280;11179;52.106;21.024;2023-05-24T04:44:09;100054.84;;;16.79;46.30
22031;BME280;11179;52.106;21.024;2023-05-24T04:46:35;100091.63;;;17.12;46.34
22031;BME280;11179;52.106;21.024;2023-05-24T04:49:01;100088.25;;;17.15;46.38
22031;BME280;11179;52.106;21.024;2023-05-24T04:51:28;100093.28;;;17.27;46.35
22031;BME280;11179;52.106;21.024;2023-05-24T04:53:54;100100.28;;;17.24;46.17
22031;BME280;11179;52.106;21.024;2023-05-24T04:56:20;100088.34;;;17.23;46.47
22031;BME280;11179;52.106;21.024;2023-05-24T04:58:46;100083.53;;;17.29;46.25
22031;BME280;11179;52.106;21.024;2023-05-24T05:01:12;100066.34;;;17.27;46.10
22031;BME280;11179;52.106;21.024;2023-05-24T05:03:37;100108.28;;;17.53;46.06
22031;BME280;11179;52.106;21.024;2023-05-24T05:06:03;100099.66;;;17.54;45.99
22031;BME280;11179;52.106;21.024;2023-05-24T05:08:28;100103.72;;;17.71;46.04
22031;BME280;11179;52.106;21.024;2023-05-24T05:10:55;100072.81;;;17.86;46.08
22031;BME280;11179;52.106;21.024;2023-05-24T05:13:20;100094.25;;;18.30;45.51
22031;BME280;11179;52.106;21.024;2023-05-24T05:15:45;100109.22;;;18.65;45.16
22031;BME280;11179;52.106;21.024;2023-05-24T05:18:11;100085.00;;;18.66;44.93
22031;BME280;11179;52.106;21.024;2023-05-24T05:20:36;100110.16;;;18.91;44.34
22031;BME280;11179;52.106;21.024;2023-05-24T05:23:02;100120.56;;;19.08;44.09
22031;BME280;11179;52.106;21.024;2023-05-24T05:25:27;100112.41;;;19.12;43.65
22031;BME280;11179;52.106;21.024;2023-05-24T05:27:52;100119.44;;;19.18;43.58
22031;BME280;11179;52.106;21.024;2023-05-24T05:30:18;100114.84;;;19.13;43.45
22031;BME280;11179;52.106;21.024;2023-05-24T05:32:43;100111.69;;;19.06;43.46
22031;BME280;11179;52.106;21.024;2023-05-24T05:35:08;100114.22;;;19.73;42.97
22031;BME280;11179;52.106;21.024;2023-05-24T05:37:34;100109.97;;;20.53;42.06
22031;BME280;11179;52.106;21.024;2023-05-24T05:39:59;100110.91;;;21.30;40.73
22031;BME280;11179;52.106;21.024;2023-05-24T05:42:25;100101.25;;;21.48;39.53
22031;BME280;11179;52.106;21.024;2023-05-24T05:44:50;100119.50;;;21.54;39.50
22031;BME280;11179;52.106;21.024;2023-05-24T05:47:17;100113.78;;;21.42;39.51
22031;BME280;11179;52.106;21.024;2023-05-24T05:49:43;100122.50;;;21.32;39.61
22031;BME280;11179;52.106;21.024;2023-05-24T05:52:12;100118.75;;;20.98;39.26
22031;BME280;11179;52.106;21.024;2023-05-24T05:54:38;100119.13;;;20.80;39.10
22031;BME280;11179;52.106;21.024;2023-05-24T05:57:04;100111.94;;;20.53;39.57
22031;BME280;11179;52.106;21.024;2023-05-24T05:59:29;100100.63;;;20.40;39.63
22031;BME280;11179;52.106;21.024;2023-05-24T06:01:55;100121.66;;;20.29;39.63
22031;BME280;11179;52.106;21.024;2023-05-24T06:04:20;100124.75;;;20.45;39.95
22031;BME280;11179;52.106;21.024;2023-05-24T06:06:45;100139.59;;;20.92;39.54
22031;BME280;11179;52.106;21.024;2023-05-24T06:09:15;100141.88;;;21.37;39.26
22031;BME280;11179;52.106;21.024;2023-05-24T06:11:40;100110.34;;;21.95;38.66
22031;BME280;11179;52.106;21.024;2023-05-24T06:14:09;100120.63;;;22.24;37.89
22031;BME280;11179;52.106;21.024;2023-05-24T06:16:36;100117.38;;;22.55;37.78
22031;BME280;11179;52.106;21.024;2023-05-24T06:19:06;100141.34;;;23.46;37.51
22031;BME280;11179;52.106;21.024;2023-05-24T06:21:31;100143.66;;;24.05;35.65
22031;BME280;11179;52.106;21.024;2023-05-24T06:23:57;100130.34;;;24.02;34.73
22031;BME280;11179;52.106;21.024;2023-05-24T06:26:24;100122.44;;;24.32;34.63
22031;BME280;11179;52.106;21.024;2023-05-24T06:28:51;100150.38;;;24.84;33.81
22031;BME280;11179;52.106;21.024;2023-05-24T06:31:16;100143.41;;;24.50;33.62
22031;BME280;11179;52.106;21.024;2023-05-24T06:33:42;100165.91;;;24.66;32.98
22031;BME280;11179;52.106;21.024;2023-05-24T06:36:08;100154.97;;;24.77;33.40
22031;BME280;11179;52.106;21.024;2023-05-24T06:38:33;100152.13;;;24.89;32.67
22031;BME280;11179;52.106;21.024;2023-05-24T06:41:00;100180.94;;;25.61;32.28
22031;BME280;11179;52.106;21.024;2023-05-24T06:43:25;100167.81;;;25.84;32.04
22031;BME280;11179;52.106;21.024;2023-05-24T06:45:51;100149.84;;;26.24;31.65
22031;BME280;11179;52.106;21.024;2023-05-24T06:48:16;100172.78;;;27.03;31.38
22031;BME280;11179;52.106;21.024;2023-05-24T06:50:42;100173.28;;;27.51;30.80
22031;BME280;11179;52.106;21.024;2023-05-24T06:53:07;100173.09;;;27.89;29.54
22031;BME280;11179;52.106;21.024;2023-05-24T06:55:34;100158.97;;;27.63;29.14
22031;BME280;11179;52.106;21.024;2023-05-24T06:58:01;100191.22;;;27.20;29.15
22031;BME280;11179;52.106;21.024;2023-05-24T07:00:26;100187.22;;;26.79;30.19
22031;BME280;11179;52.106;21.024;2023-05-24T07:02:52;100185.56;;;26.78;30.14
22031;BME280;11179;52.106;21.024;2023-05-24T07:05:17;100180.59;;;26.90;29.78
22031;BME280;11179;52.106;21.024;2023-05-24T07:07:43;100185.50;;;26.93;29.69
22031;BME280;11179;52.106;21.024;2023-05-24T07:10:10;100177.75;;;27.32;29.28
22031;BME280;11179;52.106;21.024;2023-05-24T07:12:36;100201.31;;;27.89;29.10
22031;BME280;11179;52.106;21.024;2023-05-24T07:15:03;100188.09;;;28.23;28.07
22031;BME280;11179;52.106;21.024;2023-05-24T07:17:28;100190.88;;;28.49;28.78
22031;BME280;11179;52.106;21.024;2023-05-24T07:19:54;100172.66;;;28.73;28.06
22031;BME280;11179;52.106;21.024;2023-05-24T07:22:19;100182.28;;;29.06;27.25
22031;BME280;11179;52.106;21.024;2023-05-24T07:24:44;100194.00;;;29.41;27.29
22031;BME280;11179;52.106;21.024;2023-05-24T07:27:10;100202.88;;;29.87;26.59
22031;BME280;11179;52.106;21.024;2023-05-24T07:29:35;100203.34;;;29.97;26.62
22031;BME280;11179;52.106;21.024;2023-05-24T07:32:00;100181.47;;;29.42;26.58
22031;BME280;11179;52.106;21.024;2023-05-24T07:34:26;100211.13;;;29.15;26.30
22031;BME280;11179;52.106;21.024;2023-05-24T07:36:54;100203.75;;;28.77;26.95
22031;BME280;11179;52.106;21.024;2023-05-24T07:39:19;100216.94;;;28.62;27.51
22031;BME280;11179;52.106;21.024;2023-05-24T07:41:45;100207.50;;;28.85;27.08
22031;BME280;11179;52.106;21.024;2023-05-24T07:44:12;100211.13;;;29.15;27.32
22031;BME280;11179;52.106;21.024;2023-05-24T07:46:37;100196.41;;;29.39;26.87
22031;BME280;11179;52.106;21.024;2023-05-24T07:49:02;100212.03;;;29.67;26.53
22031;BME280;11179;52.106;21.024;2023-05-24T07:51:28;100206.03;;;29.75;25.96
22031;BME280;11179;52.106;21.024;2023-05-24T07:53:53;100209.53;;;30.13;25.83
22031;BME280;11179;52.106;21.024;2023-05-24T07:56:18;100227.59;;;30.49;24.58
22031;BME280;11179;52.106;21.024;2023-05-24T07:58:44;100224.47;;;30.06;24.89
22031;BME280;11179;52.106;21.024;2023-05-24T08:01:11;100205.84;;;30.05;25.13
22031;BME280;11179;52.106;21.024;2023-05-24T08:03:37;100232.69;;;30.26;25.25
22031;BME280;11179;52.106;21.024;2023-05-24T08:06:03;100239.78;;;30.64;25.46
22031;BME280;11179;52.106;21.024;2023-05-24T08:08:41;100245.19;;;30.93;24.94
22031;BME280;11179;52.106;21.024;2023-05-24T08:11:17;100236.75;;;31.08;24.93
22031;BME280;11179;52.106;21.024;2023-05-24T08:13:43;100229.44;;;31.07;24.52
22031;BME280;11179;52.106;21.024;2023-05-24T08:16:08;100238.38;;;31.16;24.51
22031;BME280;11179;52.106;21.024;2023-05-24T08:18:34;100233.16;;;31.32;24.28
22031;BME280;11179;52.106;21.024;2023-05-24T08:20:59;100238.47;;;31.69;24.96
22031;BME280;11179;52.106;21.024;2023-05-24T08:23:25;100237.28;;;32.02;23.99
22031;BME280;11179;52.106;21.024;2023-05-24T08:25:51;100230.38;;;31.96;23.94
22031;BME280;11179;52.106;21.024;2023-05-24T08:28:17;100245.38;;;31.75;24.01
22031;BME280;11179;52.106;21.024;2023-05-24T08:30:43;100235.94;;;31.11;24.69
22031;BME280;11179;52.106;21.024;2023-05-24T08:33:08;100228.47;;;30.67;25.31
22031;BME280;11179;52.106;21.024;2023-05-24T08:35:33;100254.19;;;30.34;24.99
22031;BME280;11179;52.106;21.024;2023-05-24T08:38:00;100247.03;;;29.96;25.16
22031;BME280;11179;52.106;21.024;2023-05-24T08:40:26;100251.47;;;29.93;25.67
22031;BME280;11179;52.106;21.024;2023-05-24T08:42:51;100251.19;;;30.12;25.30
22031;BME280;11179;52.106;21.024;2023-05-24T08:45:17;100256.88;;;30.16;25.54
22031;BME280;11179;52.106;21.024;2023-05-24T08:47:43;100259.56;;;29.98;25.60
22031;BME280;11179;52.106;21.024;2023-05-24T08:50:10;100252.78;;;29.62;25.80
22031;BME280;11179;52.106;21.024;2023-05-24T08:52:35;100246.78;;;29.27;26.94
22031;BME280;11179;52.106;21.024;2023-05-24T08:55:02;100255.88;;;29.09;27.09
22031;BME280;11179;52.106;21.024;2023-05-24T08:57:31;100271.34;;;28.89;27.32
22031;BME280;11179;52.106;21.024;2023-05-24T08:59:56;100274.00;;;28.75;27.91
22031;BME280;11179;52.106;21.024;2023-05-24T09:02:22;100255.16;;;28.56;28.42
22031;BME280;11179;52.106;21.024;2023-05-24T09:04:49;100267.78;;;28.62;28.41
22031;BME280;11179;52.106;21.024;2023-05-24T09:07:18;100275.44;;;28.62;27.84
22031;BME280;11179;52.106;21.024;2023-05-24T09:09:52;100265.72;;;28.59;27.75
22031;BME280;11179;52.106;21.024;2023-05-24T09:12:20;100275.91;;;28.67;28.20
22031;BME280;11179;52.106;21.024;2023-05-24T09:14:46;100271.00;;;28.64;28.16
22031;BME280;11179;52.106;21.024;2023-05-24T09:17:12;100258.72;;;28.53;27.93
22031;BME280;11179;52.106;21.024;2023-05-24T09:19:43;100270.53;;;28.59;28.04
22031;BME280;11179;52.106;21.024;2023-05-24T09:22:08;100271.75;;;28.58;27.88
22031;BME280;11179;52.106;21.024;2023-05-24T09:24:45;100285.91;;;28.61;28.94
22031;BME280;11179;52.106;21.024;2023-05-24T09:27:14;100276.88;;;28.52;29.46
22031;BME280;11179;52.106;21.024;2023-05-24T09:29:42;100290.50;;;28.73;29.31
22031;BME280;11179;52.106;21.024;2023-05-24T09:32:11;100263.91;;;28.77;28.91
22031;BME280;11179;52.106;21.024;2023-05-24T09:34:43;100295.88;;;29.11;28.99
22031;BME280;11179;52.106;21.024;2023-05-24T09:37:19;100265.16;;;29.10;29.05
22031;BME280;11179;52.106;21.024;2023-05-24T09:39:47;100297.78;;;29.37;28.90
22031;BME280;11179;52.106;21.024;2023-05-24T09:42:16;100289.38;;;29.44;28.81
22031;BME280;11179;52.106;21.024;2023-05-24T09:44:59;100277.75;;;29.53;28.69
22031;BME280;11179;52.106;21.024;2023-05-24T09:47:31;100301.78;;;29.70;28.65
22031;BME280;11179;52.106;21.024;2023-05-24T09:50:03;100296.38;;;29.58;28.54
22031;BME280;11179;52.106;21.024;2023-05-24T09:52:29;100297.13;;;29.51;28.50
22031;BME280;11179;52.106;21.024;2023-05-24T09:54:55;100293.13;;;29.56;28.38
22031;BME280;11179;52.106;21.024;2023-05-24T09:57:20;100274.44;;;29.47;28.37
22031;BME280;11179;52.106;21.024;2023-05-24T09:59:50;100292.75;;;29.61;28.47
22031;BME280;11179;52.106;21.024;2023-05-24T10:02:17;100296.84;;;29.63;28.32
22031;BME280;11179;52.106;21.024;2023-05-24T10:04:46;100303.22;;;29.53;28.01
22031;BME280;11179;52.106;21.024;2023-05-24T10:07:11;100308.63;;;29.32;28.52
22031;BME280;11179;52.106;21.024;2023-05-24T10:09:38;100290.97;;;29.08;28.86
22031;BME280;11179;52.106;21.024;2023-05-24T10:12:06;100310.44;;;29.13;28.63
22031;BME280;11179;52.106;21.024;2023-05-24T10:14:33;100315.72;;;29.15;29.07
22031;BME280;11179;52.106;21.024;2023-05-24T10:17:03;100315.97;;;29.06;29.00
22031;BME280;11179;52.106;21.024;2023-05-24T10:19:36;100304.53;;;28.96;29.45
22031;BME280;11179;52.106;21.024;2023-05-24T10:22:06;100311.94;;;29.07;29.38
22031;BME280;11179;52.106;21.024;2023-05-24T10:24:37;100310.69;;;29.05;29.05
22031;BME280;11179;52.106;21.024;2023-05-24T10:27:07;100308.88;;;28.90;29.08
22031;BME280;11179;52.106;21.024;2023-05-24T10:32:18;100321.94;;;28.98;28.98
22031;BME280;11179;52.106;21.024;2023-05-24T10:34:45;100325.75;;;28.82;29.13
22031;BME280;11179;52.106;21.024;2023-05-24T10:37:11;100296.44;;;28.64;29.42
22031;BME280;11179;52.106;21.024;2023-05-24T10:39:36;100316.66;;;28.96;29.48
22031;BME280;11179;52.106;21.024;2023-05-24T10:42:05;100303.00;;;29.02;29.39
22031;BME280;11179;52.106;21.024;2023-05-24T10:44:32;100327.53;;;29.24;29.27
22031;BME280;11179;52.106;21.024;2023-05-24T10:47:07;100318.91;;;29.47;29.56
22031;BME280;11179;52.106;21.024;2023-05-24T10:49:34;100305.94;;;29.46;28.94
22031;BME280;11179;52.106;21.024;2023-05-24T10:52:06;100323.81;;;29.53;28.84
22031;BME280;11179;52.106;21.024;2023-05-24T10:54:32;100315.25;;;29.46;28.77
22031;BME280;11179;52.106;21.024;2023-05-24T10:57:00;100323.13;;;29.30;29.36
22031;BME280;11179;52.106;21.024;2023-05-24T10:59:35;100322.56;;;29.14;29.36
22031;BME280;11179;52.106;21.024;2023-05-24T11:02:09;100323.25;;;29.07;29.79
22031;BME280;11179;52.106;21.024;2023-05-24T11:04:44;100342.00;;;29.19;30.07
22031;BME280;11179;52.106;21.024;2023-05-24T11:07:12;100323.84;;;29.20;29.86
22031;BME280;11179;52.106;21.024;2023-05-24T11:09:39;100312.34;;;29.39;29.31
22031;BME280;11179;52.106;21.024;2023-05-24T11:12:15;100338.31;;;29.48;29.61
22031;BME280;11179;52.106;21.024;2023-05-24T11:14:46;100340.53;;;29.29;30.17
22031;BME280;11179;52.106;21.024;2023-05-24T11:17:13;100330.09;;;29.06;29.84
22031;BME280;11179;52.106;21.024;2023-05-24T11:19:53;100341.09;;;29.11;29.94
22031;BME280;11179;52.106;21.024;2023-05-24T11:22:23;100341.94;;;29.12;30.31
22031;BME280;11179;52.106;21.024;2023-05-24T11:24:50;100328.38;;;28.98;30.12
22031;BME280;11179;52.106;21.024;2023-05-24T11:27:16;100311.44;;;28.68;30.32
22031;BME280;11179;52.106;21.024;2023-05-24T11:29:43;100338.66;;;29.10;30.55
22031;BME280;11179;52.106;21.024;2023-05-24T11:32:14;100315.03;;;28.95;30.03
22031;BME280;11179;52.106;21.024;2023-05-24T11:34:39;100322.88;;;29.09;30.07
22031;BME280;11179;52.106;21.024;2023-05-24T11:37:05;100313.69;;;28.86;30.24
22031;BME280;11179;52.106;21.024;2023-05-24T11:39:32;100322.16;;;28.86;30.64
22031;BME280;11179;52.106;21.024;2023-05-24T11:41:58;100327.22;;;29.03;30.35
22031;BME280;11179;52.106;21.024;2023-05-24T11:44:24;100326.81;;;29.01;30.15
22031;BME280;11179;52.106;21.024;2023-05-24T11:46:59;100305.16;;;28.82;30.03
22031;BME280;11179;52.106;21.024;2023-05-24T11:49:25;100326.44;;;29.02;30.42
22031;BME280;11179;52.106;21.024;2023-05-24T11:51:53;100326.63;;;29.16;30.52
22031;BME280;11179;52.106;21.024;2023-05-24T11:54:19;100323.00;;;29.16;30.48
22031;BME280;11179;52.106;21.024;2023-05-24T11:56:46;100291.69;;;29.02;29.81
22031;BME280;11179;52.106;21.024;2023-05-24T11:59:18;100326.47;;;29.06;30.01
22031;BME280;11179;52.106;21.024;2023-05-24T12:01:46;100302.75;;;28.84;30.33
22031;BME280;11179;52.106;21.024;2023-05-24T12:04:11;100315.41;;;28.94;30.20
22031;BME280;11179;52.106;21.024;2023-05-24T12:06:39;100307.50;;;28.76;30.18
22031;BME280;11179;52.106;21.024;2023-05-24T12:09:06;100315.69;;;28.85;30.72
22031;BME280;11179;52.106;21.024;2023-05-24T12:11:39;100298.63;;;28.78;30.55
22031;BME280;11179;52.106;21.024;2023-05-24T12:14:06;100318.66;;;28.96;30.74
22031;BME280;11179;52.106;21.024;2023-05-24T12:16:31;100313.00;;;28.96;31.25
22031;BME280;11179;52.106;21.024;2023-05-24T12:18:58;100282.31;;;28.64;30.83
22031;BME280;11179;52.106;21.024;2023-05-24T12:21:23;100300.94;;;28.69;30.78
22031;BME280;11179;52.106;21.024;2023-05-24T12:23:49;100326.75;;;28.67;31.19
22031;BME280;11179;52.106;21.024;2023-05-24T12:26:17;100297.53;;;28.56;31.43
22031;BME280;11179;52.106;21.024;2023-05-24T12:28:44;100309.38;;;28.65;31.10
22031;BME280;11179;52.106;21.024;2023-05-24T12:31:09;100309.91;;;28.74;31.51
22031;BME280;11179;52.106;21.024;2023-05-24T12:33:35;100324.75;;;28.98;31.68
22031;BME280;11179;52.106;21.024;2023-05-24T12:36:01;100285.06;;;28.91;31.07
22031;BME280;11179;52.106;21.024;2023-05-24T12:38:26;100282.25;;;28.91;30.88
22031;BME280;11179;52.106;21.024;2023-05-24T12:40:52;100300.19;;;29.02;31.27
22031;BME280;11179;52.106;21.024;2023-05-24T12:43:19;100299.44;;;29.08;31.03
22031;BME280;11179;52.106;21.024;2023-05-24T12:45:45;100296.06;;;28.96;30.89
22031;BME280;11179;52.106;21.024;2023-05-24T12:48:11;100301.84;;;29.06;30.98
22031;BME280;11179;52.106;21.024;2023-05-24T12:50:36;100304.41;;;29.15;30.37